| Time | Avg. Air Temp | Dew Point | Avg. Rel Humidity | Avg. 2 Min Wind Speed | Max Gust Velocity | MGV Time | MGV Direction | Avg. Spot Wind Velocity |
|---|---|---|---|---|---|---|---|---|
| 2026-09-05 05:40:00 | 2° C | -0° C | 84% | 14 km/h | 18 km/h | 05:39:00 | E | 13 km/h |
| 04:40:00 | 1° C | -0° C | 91% | 23 km/h | 26 km/h | 04:38:00 | NE | 24 km/h |
| 03:40:00 | 2° C | -1° C | 82% | 10 km/h | 13 km/h | 03:39:00 | E | 10 km/h |
| 02:40:00 | 2° C | -1° C | 83% | 13 km/h | 13 km/h | 02:39:00 | E | 10 km/h |
| 01:40:00 | 2° C | -1° C | 82% | 11 km/h | 16 km/h | 01:36:00 | NE | 9 km/h |
| 00:40:00 | 1° C | 1° C | 97% | 9 km/h | 20 km/h | 00:38:00 | E | 10 km/h |
| 23:40:00 | 1° C | 0° C | 97% | 14 km/h | 15 km/h | 23:37:00 | E | 14 km/h |
| 22:40:00 | 1° C | 0° C | 100% | 14 km/h | 19 km/h | 22:39:00 | SE | 13 km/h |
| 21:40:00 | 0° C | 0° C | 100% | 12 km/h | 18 km/h | 21:37:00 | SE | 12 km/h |
| 20:40:00 | 1° C | 0° C | 100% | 17 km/h | 20 km/h | 20:36:00 | SE | 16 km/h |
| 19:40:00 | 0° C | 0° C | 100% | 16 km/h | 21 km/h | 19:37:00 | SE | 16 km/h |
| 18:40:00 | 0° C | 1° C | 100% | 12 km/h | 21 km/h | 18:37:00 | SE | 15 km/h |
| 17:40:00 | 0° C | 0° C | 100% | 12 km/h | 18 km/h | 17:39:00 | SE | 11 km/h |
| 16:40:00 | 0° C | 0° C | 100% | 11 km/h | 15 km/h | 16:36:00 | SE | 12 km/h |
| 15:40:00 | 1° C | 1° C | 100% | 5 km/h | 8 km/h | 15:39:00 | S | 4 km/h |
| 14:40:00 | 1° C | 1° C | 100% | 11 km/h | 14 km/h | 14:39:00 | S | 11 km/h |
| 13:40:00 | 1° C | 1° C | 100% | 6 km/h | 9 km/h | 13:38:00 | S | 6 km/h |
| 12:40:00 | 1° C | 1° C | 100% | 7 km/h | 11 km/h | 12:37:00 | SE | 9 km/h |
| 11:40:00 | 2° C | 2° C | 100% | 5 km/h | 7 km/h | 11:38:00 | E | 5 km/h |
| 10:40:00 | 2° C | 1° C | 93% | 5 km/h | 11 km/h | 10:38:00 | SE | 5 km/h |
| 09:40:00 | 1° C | 1° C | 98% | 20 km/h | 24 km/h | 09:38:00 | NE | 20 km/h |
| 08:40:00 | 1° C | 1° C | 100% | 19 km/h | 22 km/h | 08:40:00 | NE | 17 km/h |
| 07:40:00 | 0° C | 0° C | 100% | 14 km/h | 17 km/h | 07:40:00 | NE | 14 km/h |
| 06:40:00 | 0° C | 0° C | 100% | 14 km/h | 18 km/h | 06:36:00 | NE | 14 km/h |
Subpeak Weather
| Time | Avg. Air Temp | Dew Point | Avg. Rel Humidity | Avg. 2 Min Wind Speed | Max Gust Velocity | MGV Time | MGV Direction | Avg. Spot Wind Velocity |
|---|---|---|---|---|---|---|---|---|
| 2026-09-05 05:40:00 | 2° C | -0° C | 84% | 14 km/h | 18 km/h | 05:39:00 | E | 13 km/h |
| 05:35:00 | 2° C | -1° C | 85% | 16 km/h | 23 km/h | 05:32:00 | E | 17 km/h |
| 05:30:00 | 2° C | -0° C | 84% | 16 km/h | 19 km/h | 05:29:00 | E | 16 km/h |
| 05:25:00 | 2° C | -1° C | 84% | 17 km/h | 21 km/h | 05:22:00 | E | 17 km/h |
| 05:20:00 | 2° C | -1° C | 84% | 16 km/h | 19 km/h | 05:19:00 | E | 15 km/h |
| 05:15:00 | 2° C | -1° C | 85% | 18 km/h | 20 km/h | 05:15:00 | E | 17 km/h |
| 05:10:00 | 1° C | -1° C | 87% | 18 km/h | 21 km/h | 05:06:00 | E | 18 km/h |
| 05:05:00 | 2° C | -0° C | 87% | 18 km/h | 21 km/h | 05:01:00 | NE | 19 km/h |
| 05:00:00 | 1° C | -0° C | 91% | 21 km/h | 24 km/h | 04:56:00 | E | 21 km/h |
| 04:55:00 | 1° C | 0° C | 91% | 21 km/h | 26 km/h | 04:52:00 | NE | 23 km/h |
| 04:50:00 | 1° C | 0° C | 91% | 24 km/h | 26 km/h | 04:48:00 | E | 24 km/h |
| 04:45:00 | 1° C | -0° C | 90% | 24 km/h | 28 km/h | 04:43:00 | NE | 24 km/h |
| 04:40:00 | 1° C | -0° C | 91% | 23 km/h | 26 km/h | 04:38:00 | NE | 24 km/h |




